sensor_id;sensor_type;location;lat;lon;timestamp;pressure;altitude;pressure_sealevel;temperature;humidity
5966;BME280;3009;43.224;27.976;2023-05-03T00:00:54;101255.56;;;10.32;100.00
5966;BME280;3009;43.224;27.976;2023-05-03T00:03:26;101248.88;;;10.29;100.00
5966;BME280;3009;43.224;27.976;2023-05-03T00:05:55;101241.97;;;10.23;100.00
5966;BME280;3009;43.224;27.976;2023-05-03T00:08:23;101234.22;;;10.21;100.00
5966;BME280;3009;43.224;27.976;2023-05-03T00:10:59;101245.81;;;10.17;100.00
5966;BME280;3009;43.224;27.976;2023-05-03T00:13:28;101234.50;;;10.20;100.00
5966;BME280;3009;43.224;27.976;2023-05-03T00:15:56;101247.91;;;10.20;100.00
5966;BME280;3009;43.224;27.976;2023-05-03T00:18:24;101239.66;;;10.16;100.00
5966;BME280;3009;43.224;27.976;2023-05-03T00:20:52;101239.81;;;10.25;100.00
5966;BME280;3009;43.224;27.976;2023-05-03T00:23:21;101243.31;;;10.25;100.00
5966;BME280;3009;43.224;27.976;2023-05-03T00:25:51;101235.25;;;10.25;100.00
5966;BME280;3009;43.224;27.976;2023-05-03T00:28:22;101231.25;;;10.23;100.00
5966;BME280;3009;43.224;27.976;2023-05-03T00:30:50;101232.63;;;10.20;100.00
5966;BME280;3009;43.224;27.976;2023-05-03T00:33:19;101246.56;;;10.22;100.00
5966;BME280;3009;43.224;27.976;2023-05-03T00:35:47;101228.09;;;10.21;100.00
5966;BME280;3009;43.224;27.976;2023-05-03T00:38:16;101241.19;;;10.22;100.00
5966;BME280;3009;43.224;27.976;2023-05-03T00:40:44;101233.47;;;10.16;100.00
5966;BME280;3009;43.224;27.976;2023-05-03T00:43:12;101229.22;;;10.15;100.00
5966;BME280;3009;43.224;27.976;2023-05-03T00:45:42;101228.09;;;10.21;100.00
5966;BME280;3009;43.224;27.976;2023-05-03T00:48:12;101230.50;;;10.17;100.00
5966;BME280;3009;43.224;27.976;2023-05-03T00:50:40;101229.22;;;10.15;100.00
5966;BME280;3009;43.224;27.976;2023-05-03T00:53:08;101229.06;;;10.01;100.00
5966;BME280;3009;43.224;27.976;2023-05-03T00:55:37;101232.09;;;9.94;100.00
5966;BME280;3009;43.224;27.976;2023-05-03T00:58:05;101225.69;;;9.90;100.00
5966;BME280;3009;43.224;27.976;2023-05-03T01:00:34;101226.22;;;9.92;100.00
5966;BME280;3009;43.224;27.976;2023-05-03T01:03:04;101235.91;;;9.83;100.00
5966;BME280;3009;43.224;27.976;2023-05-03T01:05:38;101229.75;;;9.87;100.00
5966;BME280;3009;43.224;27.976;2023-05-03T01:08:12;101225.19;;;9.88;100.00
5966;BME280;3009;43.224;27.976;2023-05-03T01:10:49;101215.03;;;9.85;100.00
5966;BME280;3009;43.224;27.976;2023-05-03T01:13:23;101215.50;;;9.92;100.00
5966;BME280;3009;43.224;27.976;2023-05-03T01:16:00;101215.81;;;9.85;100.00
5966;BME280;3009;43.224;27.976;2023-05-03T01:18:37;101219.06;;;9.82;100.00
5966;BME280;3009;43.224;27.976;2023-05-03T01:21:09;101226.88;;;9.79;100.00
5966;BME280;3009;43.224;27.976;2023-05-03T01:23:42;101220.38;;;9.85;100.00
5966;BME280;3009;43.224;27.976;2023-05-03T01:26:21;101218.00;;;9.83;100.00
5966;BME280;3009;43.224;27.976;2023-05-03T01:28:50;101216.09;;;9.84;100.00
5966;BME280;3009;43.224;27.976;2023-05-03T01:31:21;101221.53;;;9.79;100.00
5966;BME280;3009;43.224;27.976;2023-05-03T01:36:43;101215.63;;;9.76;100.00
5966;BME280;3009;43.224;27.976;2023-05-03T01:39:17;101214.84;;;9.76;100.00
5966;BME280;3009;43.224;27.976;2023-05-03T01:41:49;101221.53;;;9.73;100.00
5966;BME280;3009;43.224;27.976;2023-05-03T01:44:18;101224.22;;;9.73;100.00
5966;BME280;3009;43.224;27.976;2023-05-03T01:46:47;101233.09;;;9.69;100.00
5966;BME280;3009;43.224;27.976;2023-05-03T01:49:15;101230.13;;;9.70;100.00
5966;BME280;3009;43.224;27.976;2023-05-03T01:51:43;101224.78;;;9.70;100.00
5966;BME280;3009;43.224;27.976;2023-05-03T01:54:12;101228.72;;;9.78;100.00
5966;BME280;3009;43.224;27.976;2023-05-03T01:56:40;101222.88;;;9.76;100.00
5966;BME280;3009;43.224;27.976;2023-05-03T01:59:10;101223.66;;;9.76;100.00
5966;BME280;3009;43.224;27.976;2023-05-03T02:01:38;101222.66;;;9.72;100.00
5966;BME280;3009;43.224;27.976;2023-05-03T02:04:07;101222.66;;;9.72;100.00
5966;BME280;3009;43.224;27.976;2023-05-03T02:06:35;101220.25;;;9.71;100.00
5966;BME280;3009;43.224;27.976;2023-05-03T02:09:03;101214.63;;;9.67;100.00
5966;BME280;3009;43.224;27.976;2023-05-03T02:11:32;101215.44;;;9.68;100.00
5966;BME280;3009;43.224;27.976;2023-05-03T02:14:00;101227.19;;;9.72;100.00
5966;BME280;3009;43.224;27.976;2023-05-03T02:16:30;101225.91;;;9.64;100.00
5966;BME280;3009;43.224;27.976;2023-05-03T02:18:58;101220.28;;;9.66;100.00
5966;BME280;3009;43.224;27.976;2023-05-03T02:21:26;101229.69;;;9.63;100.00
5966;BME280;3009;43.224;27.976;2023-05-03T02:23:55;101221.03;;;9.71;100.00
5966;BME280;3009;43.224;27.976;2023-05-03T02:26:23;101221.81;;;9.72;100.00
5966;BME280;3009;43.224;27.976;2023-05-03T02:28:51;101222.66;;;9.67;100.00
5966;BME280;3009;43.224;27.976;2023-05-03T02:31:21;101221.81;;;9.77;100.00
5966;BME280;3009;43.224;27.976;2023-05-03T02:33:51;101225.03;;;9.74;100.00
5966;BME280;3009;43.224;27.976;2023-05-03T02:36:20;101228.56;;;9.69;100.00
5966;BME280;3009;43.224;27.976;2023-05-03T02:38:49;101235.75;;;9.74;100.00
5966;BME280;3009;43.224;27.976;2023-05-03T02:41:17;101234.63;;;9.80;100.00
5966;BME280;3009;43.224;27.976;2023-05-03T02:43:46;101236.50;;;9.80;100.00
5966;BME280;3009;43.224;27.976;2023-05-03T02:46:15;101243.16;;;9.82;100.00
5966;BME280;3009;43.224;27.976;2023-05-03T02:48:44;101234.34;;;9.82;100.00
5966;BME280;3009;43.224;27.976;2023-05-03T02:51:13;101241.63;;;9.76;100.00
5966;BME280;3009;43.224;27.976;2023-05-03T02:53:42;101233.78;;;9.85;100.00
5966;BME280;3009;43.224;27.976;2023-05-03T02:56:10;101229.50;;;9.84;100.00
5966;BME280;3009;43.224;27.976;2023-05-03T02:58:38;101235.91;;;9.88;100.00
5966;BME280;3009;43.224;27.976;2023-05-03T03:01:07;101235.09;;;9.87;100.00
5966;BME280;3009;43.224;27.976;2023-05-03T03:03:35;101241.81;;;9.85;100.00
5966;BME280;3009;43.224;27.976;2023-05-03T03:06:04;101243.16;;;9.82;100.00
5966;BME280;3009;43.224;27.976;2023-05-03T03:08:34;101237.50;;;9.89;100.00
5966;BME280;3009;43.224;27.976;2023-05-03T03:11:03;101244.16;;;9.91;100.00
5966;BME280;3009;43.224;27.976;2023-05-03T03:13:32;101244.16;;;9.91;100.00
5966;BME280;3009;43.224;27.976;2023-05-03T03:16:05;101243.31;;;9.96;100.00
5966;BME280;3009;43.224;27.976;2023-05-03T03:18:34;101236.88;;;9.97;100.00
5966;BME280;3009;43.224;27.976;2023-05-03T03:21:03;101237.16;;;9.96;100.00
5966;BME280;3009;43.224;27.976;2023-05-03T03:23:31;101240.06;;;9.99;100.00
5966;BME280;3009;43.224;27.976;2023-05-03T03:26:02;101238.13;;;10.05;100.00
5966;BME280;3009;43.224;27.976;2023-05-03T03:28:30;101243.69;;;10.14;100.00
5966;BME280;3009;43.224;27.976;2023-05-03T03:30:59;101237.53;;;10.13;100.00
5966;BME280;3009;43.224;27.976;2023-05-03T03:33:27;101239.38;;;10.18;100.00
5966;BME280;3009;43.224;27.976;2023-05-03T03:35:55;101234.91;;;10.32;100.00
5966;BME280;3009;43.224;27.976;2023-05-03T03:38:24;101228.50;;;10.33;100.00
5966;BME280;3009;43.224;27.976;2023-05-03T03:40:52;101243.94;;;10.41;100.00
5966;BME280;3009;43.224;27.976;2023-05-03T03:43:22;101236.34;;;10.54;100.00
5966;BME280;3009;43.224;27.976;2023-05-03T03:45:51;101246.78;;;10.55;100.00
5966;BME280;3009;43.224;27.976;2023-05-03T03:48:19;101244.31;;;10.59;100.00
5966;BME280;3009;43.224;27.976;2023-05-03T03:50:48;101251.59;;;10.77;100.00
5966;BME280;3009;43.224;27.976;2023-05-03T03:53:16;101263.13;;;10.78;100.00
5966;BME280;3009;43.224;27.976;2023-05-03T03:55:45;101254.34;;;10.91;100.00
5966;BME280;3009;43.224;27.976;2023-05-03T03:58:13;101256.16;;;10.96;100.00
5966;BME280;3009;43.224;27.976;2023-05-03T04:00:43;101260.13;;;11.04;100.00
5966;BME280;3009;43.224;27.976;2023-05-03T04:03:12;101242.63;;;11.06;100.00
5966;BME280;3009;43.224;27.976;2023-05-03T04:05:40;101235.22;;;11.36;100.00
5966;BME280;3009;43.224;27.976;2023-05-03T04:08:09;101235.56;;;11.48;100.00
5966;BME280;3009;43.224;27.976;2023-05-03T04:10:37;101234.63;;;11.58;100.00
5966;BME280;3009;43.224;27.976;2023-05-03T04:13:05;101219.44;;;11.81;100.00
5966;BME280;3009;43.224;27.976;2023-05-03T04:15:34;101219.31;;;12.05;100.00
5966;BME280;3009;43.224;27.976;2023-05-03T04:18:04;101225.72;;;12.23;100.00
5966;BME280;3009;43.224;27.976;2023-05-03T04:20:33;101224.94;;;12.37;100.00
5966;BME280;3009;43.224;27.976;2023-05-03T04:23:02;101231.06;;;12.79;100.00
5966;BME280;3009;43.224;27.976;2023-05-03T04:25:30;101218.88;;;12.96;100.00
5966;BME280;3009;43.224;27.976;2023-05-03T04:27:59;101215.91;;;12.83;100.00
5966;BME280;3009;43.224;27.976;2023-05-03T04:30:27;101220.88;;;12.90;100.00
5966;BME280;3009;43.224;27.976;2023-05-03T04:32:56;101226.72;;;13.28;100.00
5966;BME280;3009;43.224;27.976;2023-05-03T04:35:27;101212.75;;;13.94;100.00
5966;BME280;3009;43.224;27.976;2023-05-03T04:37:55;101216.06;;;14.23;100.00
5966;BME280;3009;43.224;27.976;2023-05-03T04:40:23;101213.28;;;14.45;100.00
5966;BME280;3009;43.224;27.976;2023-05-03T04:42:52;101223.44;;;14.48;100.00
5966;BME280;3009;43.224;27.976;2023-05-03T04:45:20;101218.69;;;14.54;100.00
5966;BME280;3009;43.224;27.976;2023-05-03T04:47:49;101217.06;;;13.95;100.00
5966;BME280;3009;43.224;27.976;2023-05-03T04:50:17;101220.75;;;14.57;100.00
5966;BME280;3009;43.224;27.976;2023-05-03T04:52:47;101210.97;;;14.79;100.00
5966;BME280;3009;43.224;27.976;2023-05-03T04:55:16;101203.78;;;15.62;100.00
5966;BME280;3009;43.224;27.976;2023-05-03T04:57:44;101204.22;;;14.50;100.00
5966;BME280;3009;43.224;27.976;2023-05-03T05:00:13;101208.19;;;14.44;100.00
5966;BME280;3009;43.224;27.976;2023-05-03T05:02:42;101208.75;;;14.63;100.00
5966;BME280;3009;43.224;27.976;2023-05-03T05:05:10;101229.47;;;13.51;100.00
5966;BME280;3009;43.224;27.976;2023-05-03T05:07:39;101224.84;;;13.97;100.00
5966;BME280;3009;43.224;27.976;2023-05-03T05:10:09;101227.06;;;14.04;100.00
5966;BME280;3009;43.224;27.976;2023-05-03T05:12:37;101241.78;;;14.69;100.00
5966;BME280;3009;43.224;27.976;2023-05-03T05:15:06;101240.72;;;15.40;100.00
5966;BME280;3009;43.224;27.976;2023-05-03T05:17:35;101248.81;;;16.22;100.00
5966;BME280;3009;43.224;27.976;2023-05-03T05:20:04;101243.88;;;15.24;100.00
5966;BME280;3009;43.224;27.976;2023-05-03T05:22:34;101242.56;;;14.29;100.00
5966;BME280;3009;43.224;27.976;2023-05-03T05:25:03;101247.59;;;13.82;100.00
5966;BME280;3009;43.224;27.976;2023-05-03T05:27:33;101262.78;;;13.78;100.00
5966;BME280;3009;43.224;27.976;2023-05-03T05:30:01;101259.06;;;13.42;100.00
5966;BME280;3009;43.224;27.976;2023-05-03T05:32:31;101252.78;;;13.19;100.00
5966;BME280;3009;43.224;27.976;2023-05-03T05:34:59;101256.41;;;13.15;100.00
5966;BME280;3009;43.224;27.976;2023-05-03T05:37:28;101264.22;;;13.39;100.00
5966;BME280;3009;43.224;27.976;2023-05-03T05:39:56;101263.41;;;13.52;100.00
5966;BME280;3009;43.224;27.976;2023-05-03T05:42:25;101264.69;;;13.04;100.00
5966;BME280;3009;43.224;27.976;2023-05-03T05:44:54;101266.78;;;13.21;100.00
5966;BME280;3009;43.224;27.976;2023-05-03T05:47:23;101267.25;;;13.60;100.00
5966;BME280;3009;43.224;27.976;2023-05-03T05:49:51;101272.34;;;13.61;100.00
5966;BME280;3009;43.224;27.976;2023-05-03T05:52:20;101274.84;;;13.80;100.00
5966;BME280;3009;43.224;27.976;2023-05-03T05:54:48;101265.03;;;14.56;100.00
5966;BME280;3009;43.224;27.976;2023-05-03T05:57:17;101263.72;;;14.36;100.00
5966;BME280;3009;43.224;27.976;2023-05-03T05:59:45;101272.84;;;14.26;100.00
5966;BME280;3009;43.224;27.976;2023-05-03T06:02:15;101281.22;;;14.16;100.00
5966;BME280;3009;43.224;27.976;2023-05-03T06:04:44;101279.31;;;14.48;100.00
5966;BME280;3009;43.224;27.976;2023-05-03T06:07:13;101286.78;;;13.88;100.00
5966;BME280;3009;43.224;27.976;2023-05-03T06:09:42;101279.13;;;14.44;100.00
5966;BME280;3009;43.224;27.976;2023-05-03T06:12:10;101280.75;;;14.54;100.00
5966;BME280;3009;43.224;27.976;2023-05-03T06:14:38;101286.31;;;14.58;100.00
5966;BME280;3009;43.224;27.976;2023-05-03T06:17:28;101287.94;;;14.27;100.00
5966;BME280;3009;43.224;27.976;2023-05-03T06:19:57;101273.59;;;14.98;100.00
5966;BME280;3009;43.224;27.976;2023-05-03T06:22:25;101275.19;;;14.99;100.00
5966;BME280;3009;43.224;27.976;2023-05-03T06:24:54;101286.16;;;15.29;100.00
5966;BME280;3009;43.224;27.976;2023-05-03T06:27:23;101293.41;;;14.85;100.00
5966;BME280;3009;43.224;27.976;2023-05-03T06:29:52;101293.81;;;15.36;100.00
5966;BME280;3009;43.224;27.976;2023-05-03T06:32:20;101287.91;;;15.77;100.00
5966;BME280;3009;43.224;27.976;2023-05-03T06:34:50;101283.94;;;15.66;100.00
5966;BME280;3009;43.224;27.976;2023-05-03T06:37:20;101280.50;;;16.81;99.23
5966;BME280;3009;43.224;27.976;2023-05-03T06:39:48;101285.50;;;17.97;82.87
5966;BME280;3009;43.224;27.976;2023-05-03T06:42:16;101269.09;;;17.60;77.32
5966;BME280;3009;43.224;27.976;2023-05-03T06:44:45;101272.59;;;16.76;87.10
5966;BME280;3009;43.224;27.976;2023-05-03T06:47:14;101271.31;;;16.05;82.98
5966;BME280;3009;43.224;27.976;2023-05-03T06:49:42;101278.13;;;16.11;83.57
5966;BME280;3009;43.224;27.976;2023-05-03T06:52:11;101263.41;;;15.65;88.38
5966;BME280;3009;43.224;27.976;2023-05-03T06:54:40;101264.88;;;15.19;90.50
5966;BME280;3009;43.224;27.976;2023-05-03T06:57:09;101269.06;;;16.07;87.25
5966;BME280;3009;43.224;27.976;2023-05-03T06:59:37;101267.88;;;15.35;87.45
5966;BME280;3009;43.224;27.976;2023-05-03T07:02:06;101271.84;;;15.29;91.40
5966;BME280;3009;43.224;27.976;2023-05-03T07:04:35;101275.34;;;15.47;90.81
5966;BME280;3009;43.224;27.976;2023-05-03T07:07:03;101269.59;;;15.83;89.23
5966;BME280;3009;43.224;27.976;2023-05-03T07:09:33;101271.31;;;16.05;83.63
5966;BME280;3009;43.224;27.976;2023-05-03T07:12:07;101271.88;;;15.46;83.89
5966;BME280;3009;43.224;27.976;2023-05-03T07:14:36;101284.09;;;15.09;86.10
5966;BME280;3009;43.224;27.976;2023-05-03T07:17:05;101297.75;;;14.95;85.99
5966;BME280;3009;43.224;27.976;2023-05-03T07:19:33;101294.38;;;14.49;91.65
5966;BME280;3009;43.224;27.976;2023-05-03T07:22:03;101283.59;;;15.68;79.64
5966;BME280;3009;43.224;27.976;2023-05-03T07:24:31;101281.22;;;15.49;79.29
5966;BME280;3009;43.224;27.976;2023-05-03T07:27:01;101280.59;;;15.17;79.67
5966;BME280;3009;43.224;27.976;2023-05-03T07:29:29;101291.50;;;14.85;86.30
5966;BME280;3009;43.224;27.976;2023-05-03T07:31:58;101286.69;;;14.33;84.33
5966;BME280;3009;43.224;27.976;2023-05-03T07:34:26;101290.59;;;14.50;85.91
5966;BME280;3009;43.224;27.976;2023-05-03T07:36:54;101279.56;;;14.69;89.40
5966;BME280;3009;43.224;27.976;2023-05-03T07:39:23;101288.69;;;15.52;82.27
5966;BME280;3009;43.224;27.976;2023-05-03T07:41:51;101281.25;;;15.84;79.12
5966;BME280;3009;43.224;27.976;2023-05-03T07:44:21;101290.91;;;15.76;78.80
5966;BME280;3009;43.224;27.976;2023-05-03T07:46:49;101301.50;;;16.25;79.44
5966;BME280;3009;43.224;27.976;2023-05-03T07:49:18;101317.50;;;15.83;64.45
5966;BME280;3009;43.224;27.976;2023-05-03T07:51:47;101317.81;;;15.90;71.52
5966;BME280;3009;43.224;27.976;2023-05-03T07:54:15;101328.78;;;15.58;74.27
5966;BME280;3009;43.224;27.976;2023-05-03T07:56:45;101327.50;;;15.65;71.59
5966;BME280;3009;43.224;27.976;2023-05-03T07:59:13;101333.69;;;15.65;65.81
5966;BME280;3009;43.224;27.976;2023-05-03T08:01:43;101340.38;;;15.59;72.42
5966;BME280;3009;43.224;27.976;2023-05-03T08:04:11;101325.25;;;15.67;75.18
5966;BME280;3009;43.224;27.976;2023-05-03T08:06:40;101335.78;;;15.51;73.16
5966;BME280;3009;43.224;27.976;2023-05-03T08:09:09;101357.97;;;15.21;74.46
5966;BME280;3009;43.224;27.976;2023-05-03T08:11:38;101354.81;;;15.19;73.75
5966;BME280;3009;43.224;27.976;2023-05-03T08:14:09;101352.00;;;14.76;74.70
5966;BME280;3009;43.224;27.976;2023-05-03T08:16:38;101356.50;;;14.98;77.81
5966;BME280;3009;43.224;27.976;2023-05-03T08:19:08;101367.78;;;15.84;75.97
5966;BME280;3009;43.224;27.976;2023-05-03T08:21:36;101371.66;;;15.16;78.16
5966;BME280;3009;43.224;27.976;2023-05-03T08:24:05;101372.44;;;14.68;81.80
5966;BME280;3009;43.224;27.976;2023-05-03T08:26:34;101356.84;;;15.14;82.59
5966;BME280;3009;43.224;27.976;2023-05-03T08:29:03;101357.88;;;15.35;74.44
5966;BME280;3009;43.224;27.976;2023-05-03T08:31:31;101367.72;;;15.49;74.69
5966;BME280;3009;43.224;27.976;2023-05-03T08:33:59;101367.88;;;15.35;75.25
5966;BME280;3009;43.224;27.976;2023-05-03T08:36:31;101364.06;;;15.71;76.59
5966;BME280;3009;43.224;27.976;2023-05-03T08:39:00;101370.44;;;16.01;75.08
5966;BME280;3009;43.224;27.976;2023-05-03T08:41:32;101382.81;;;15.41;74.54
5966;BME280;3009;43.224;27.976;2023-05-03T08:44:00;101385.66;;;15.36;77.37
5966;BME280;3009;43.224;27.976;2023-05-03T08:46:30;101378.16;;;15.15;77.18
5966;BME280;3009;43.224;27.976;2023-05-03T08:49:03;101373.34;;;14.95;74.93
5966;BME280;3009;43.224;27.976;2023-05-03T08:51:35;101379.00;;;15.42;74.68
5966;BME280;3009;43.224;27.976;2023-05-03T08:54:07;101374.19;;;15.13;72.43
5966;BME280;3009;43.224;27.976;2023-05-03T08:56:39;101377.41;;;15.41;76.66
5966;BME280;3009;43.224;27.976;2023-05-03T08:59:10;101372.09;;;16.50;73.43
5966;BME280;3009;43.224;27.976;2023-05-03T09:01:39;101377.91;;;16.22;73.05
5966;BME280;3009;43.224;27.976;2023-05-03T09:04:09;101368.78;;;16.35;70.33
5966;BME280;3009;43.224;27.976;2023-05-03T09:06:39;101364.06;;;15.97;71.76
5966;BME280;3009;43.224;27.976;2023-05-03T09:09:07;101362.94;;;16.16;68.58
5966;BME280;3009;43.224;27.976;2023-05-03T09:11:37;101358.25;;;16.42;69.26
5966;BME280;3009;43.224;27.976;2023-05-03T09:14:10;101353.78;;;16.85;67.74
5966;BME280;3009;43.224;27.976;2023-05-03T09:16:39;101355.78;;;16.67;64.50
5966;BME280;3009;43.224;27.976;2023-05-03T09:19:10;101347.00;;;16.70;65.15
5966;BME280;3009;43.224;27.976;2023-05-03T09:21:42;101349.97;;;16.47;65.55
5966;BME280;3009;43.224;27.976;2023-05-03T09:24:15;101336.97;;;16.71;65.21
5966;BME280;3009;43.224;27.976;2023-05-03T09:26:44;101328.25;;;16.18;68.32
5966;BME280;3009;43.224;27.976;2023-05-03T09:29:26;101340.22;;;15.99;71.74
5966;BME280;3009;43.224;27.976;2023-05-03T09:32:00;101332.75;;;15.44;70.78
5966;BME280;3009;43.224;27.976;2023-05-03T09:34:28;101335.22;;;15.05;71.85
5966;BME280;3009;43.224;27.976;2023-05-03T09:36:59;101350.31;;;14.97;75.36
5966;BME280;3009;43.224;27.976;2023-05-03T09:39:27;101357.97;;;14.64;80.28
5966;BME280;3009;43.224;27.976;2023-05-03T09:41:56;101338.63;;;14.39;84.70
5966;BME280;3009;43.224;27.976;2023-05-03T09:44:39;101333.63;;;14.95;82.46
5966;BME280;3009;43.224;27.976;2023-05-03T09:47:09;101331.41;;;15.06;82.60
5966;BME280;3009;43.224;27.976;2023-05-03T09:49:38;101330.84;;;15.53;81.55
5966;BME280;3009;43.224;27.976;2023-05-03T09:52:07;101330.84;;;15.70;78.00
5966;BME280;3009;43.224;27.976;2023-05-03T09:54:37;101336.84;;;15.76;79.25
5966;BME280;3009;43.224;27.976;2023-05-03T09:57:07;101325.28;;;15.40;76.95
5966;BME280;3009;43.224;27.976;2023-05-03T09:59:36;101321.94;;;15.61;75.80
5966;BME280;3009;43.224;27.976;2023-05-03T10:02:06;101325.59;;;15.83;74.07
5966;BME280;3009;43.224;27.976;2023-05-03T10:04:39;101320.16;;;15.74;68.40
5966;BME280;3009;43.224;27.976;2023-05-03T10:07:14;101313.97;;;15.73;66.74
5966;BME280;3009;43.224;27.976;2023-05-03T10:09:46;101316.53;;;15.52;76.30
5966;BME280;3009;43.224;27.976;2023-05-03T10:12:15;101321.78;;;15.40;76.42
5966;BME280;3009;43.224;27.976;2023-05-03T10:14:45;101307.78;;;15.47;78.85
5966;BME280;3009;43.224;27.976;2023-05-03T10:17:17;101313.50;;;15.71;79.08
5966;BME280;3009;43.224;27.976;2023-05-03T10:20:13;101308.19;;;14.87;82.61
5966;BME280;3009;43.224;27.976;2023-05-03T10:23:07;101294.75;;;15.40;80.92
5966;BME280;3009;43.224;27.976;2023-05-03T10:25:37;101303.06;;;14.68;77.14
5966;BME280;3009;43.224;27.976;2023-05-03T10:28:07;101302.19;;;14.59;85.31
5966;BME280;3009;43.224;27.976;2023-05-03T10:30:36;101298.69;;;14.90;81.02
5966;BME280;3009;43.224;27.976;2023-05-03T10:33:27;101301.66;;;14.80;76.46
5966;BME280;3009;43.224;27.976;2023-05-03T10:35:56;101298.41;;;15.18;82.96
5966;BME280;3009;43.224;27.976;2023-05-03T10:38:28;101302.31;;;14.94;80.69
5966;BME280;3009;43.224;27.976;2023-05-03T10:40:58;101293.31;;;15.16;81.66
5966;BME280;3009;43.224;27.976;2023-05-03T10:43:42;101293.78;;;15.27;76.07
5966;BME280;3009;43.224;27.976;2023-05-03T10:46:33;101291.72;;;15.24;75.66
5966;BME280;3009;43.224;27.976;2023-05-03T10:49:15;101291.88;;;15.10;73.86
5966;BME280;3009;43.224;27.976;2023-05-03T10:51:44;101285.03;;;14.95;81.05
5966;BME280;3009;43.224;27.976;2023-05-03T10:54:14;101288.53;;;14.56;81.31
5966;BME280;3009;43.224;27.976;2023-05-03T10:56:53;101280.09;;;14.48;88.32
5966;BME280;3009;43.224;27.976;2023-05-03T10:59:23;101280.66;;;14.68;80.45
5966;BME280;3009;43.224;27.976;2023-05-03T11:01:52;101276.88;;;14.69;84.19
5966;BME280;3009;43.224;27.976;2023-05-03T11:04:38;101276.63;;;14.48;75.40
5966;BME280;3009;43.224;27.976;2023-05-03T11:07:10;101292.97;;;14.51;88.03
5966;BME280;3009;43.224;27.976;2023-05-03T11:09:48;101283.06;;;14.69;88.50
5966;BME280;3009;43.224;27.976;2023-05-03T11:12:17;101291.69;;;14.49;88.98
5966;BME280;3009;43.224;27.976;2023-05-03T11:14:46;101276.88;;;14.38;89.83
5966;BME280;3009;43.224;27.976;2023-05-03T11:17:14;101277.03;;;14.73;89.37
5966;BME280;3009;43.224;27.976;2023-05-03T11:19:43;101265.94;;;15.00;85.49
5966;BME280;3009;43.224;27.976;2023-05-03T11:22:11;101277.69;;;14.87;84.51
5966;BME280;3009;43.224;27.976;2023-05-03T11:24:40;101275.44;;;14.40;89.04
5966;BME280;3009;43.224;27.976;2023-05-03T11:27:11;101285.66;;;14.43;88.75
5966;BME280;3009;43.224;27.976;2023-05-03T11:29:47;101264.19;;;14.38;88.17
5966;BME280;3009;43.224;27.976;2023-05-03T11:32:17;101277.63;;;14.29;83.88
5966;BME280;3009;43.224;27.976;2023-05-03T11:34:45;101276.19;;;14.23;84.49
5966;BME280;3009;43.224;27.976;2023-05-03T11:37:15;101280.53;;;14.02;88.94
5966;BME280;3009;43.224;27.976;2023-05-03T11:39:43;101289.72;;;14.00;91.95
5966;BME280;3009;43.224;27.976;2023-05-03T11:42:14;101290.22;;;14.43;87.98
5966;BME280;3009;43.224;27.976;2023-05-03T11:44:43;101281.00;;;14.35;89.38
5966;BME280;3009;43.224;27.976;2023-05-03T11:47:12;101268.09;;;14.23;91.16
5966;BME280;3009;43.224;27.976;2023-05-03T11:49:50;101273.59;;;14.49;80.06
5966;BME280;3009;43.224;27.976;2023-05-03T11:52:20;101254.84;;;15.02;83.02
5966;BME280;3009;43.224;27.976;2023-05-03T11:54:49;101257.56;;;14.53;89.14
5966;BME280;3009;43.224;27.976;2023-05-03T11:57:19;101266.28;;;14.90;87.46
5966;BME280;3009;43.224;27.976;2023-05-03T11:59:48;101267.66;;;14.39;87.76
5966;BME280;3009;43.224;27.976;2023-05-03T12:02:16;101258.53;;;14.17;87.19
5966;BME280;3009;43.224;27.976;2023-05-03T12:04:45;101261.22;;;14.48;86.28
5966;BME280;3009;43.224;27.976;2023-05-03T12:07:14;101259.72;;;14.82;83.84
5966;BME280;3009;43.224;27.976;2023-05-03T12:09:47;101261.13;;;14.62;85.71
5966;BME280;3009;43.224;27.976;2023-05-03T12:12:36;101271.06;;;15.11;82.54
5966;BME280;3009;43.224;27.976;2023-05-03T12:15:13;101266.44;;;15.02;84.22
5966;BME280;3009;43.224;27.976;2023-05-03T12:17:43;101258.66;;;14.92;83.53
5966;BME280;3009;43.224;27.976;2023-05-03T12:20:16;101254.09;;;14.12;89.97
5966;BME280;3009;43.224;27.976;2023-05-03T12:22:49;101252.09;;;14.35;92.21
5966;BME280;3009;43.224;27.976;2023-05-03T12:25:22;101266.22;;;14.73;82.97
5966;BME280;3009;43.224;27.976;2023-05-03T12:27:56;101257.22;;;15.12;83.62
5966;BME280;3009;43.224;27.976;2023-05-03T12:30:44;101256.41;;;14.94;85.24
5966;BME280;3009;43.224;27.976;2023-05-03T12:33:13;101259.81;;;14.60;86.99
5966;BME280;3009;43.224;27.976;2023-05-03T12:35:48;101263.19;;;14.25;80.13
5966;BME280;3009;43.224;27.976;2023-05-03T12:38:20;101256.81;;;14.61;79.73
5966;BME280;3009;43.224;27.976;2023-05-03T12:40:51;101273.50;;;14.63;81.81
5966;BME280;3009;43.224;27.976;2023-05-03T12:43:22;101267.84;;;14.74;86.24
5966;BME280;3009;43.224;27.976;2023-05-03T12:45:50;101240.53;;;14.75;85.70
5966;BME280;3009;43.224;27.976;2023-05-03T12:48:38;101260.28;;;14.53;84.56
5966;BME280;3009;43.224;27.976;2023-05-03T12:51:12;101262.53;;;14.20;85.85
5966;BME280;3009;43.224;27.976;2023-05-03T12:53:43;101247.31;;;13.92;87.22
5966;BME280;3009;43.224;27.976;2023-05-03T12:56:13;101238.38;;;14.06;90.61
5966;BME280;3009;43.224;27.976;2023-05-03T12:58:43;101236.34;;;14.20;88.55
5966;BME280;3009;43.224;27.976;2023-05-03T13:01:18;101232.00;;;14.02;89.18
5966;BME280;3009;43.224;27.976;2023-05-03T13:04:07;101239.66;;;14.17;89.71
5966;BME280;3009;43.224;27.976;2023-05-03T13:06:55;101223.81;;;13.84;90.31
5966;BME280;3009;43.224;27.976;2023-05-03T13:09:26;101236.53;;;13.92;94.10
5966;BME280;3009;43.224;27.976;2023-05-03T13:12:14;101215.97;;;13.74;93.33
5966;BME280;3009;43.224;27.976;2023-05-03T13:14:48;101227.19;;;13.67;94.75
5966;BME280;3009;43.224;27.976;2023-05-03T13:17:18;101221.34;;;13.74;94.46